sensor_id;sensor_type;location;lat;lon;timestamp;pressure;altitude;pressure_sealevel;temperature;humidity
42247;BME280;27913;42.722;23.268;2023-08-07T00:00:12;94393.31;;;17.47;82.82
42247;BME280;27913;42.722;23.268;2023-08-07T00:05:13;94314.19;;;16.92;83.13
42247;BME280;27913;42.722;23.268;2023-08-07T00:07:39;94398.06;;;17.45;83.66
42247;BME280;27913;42.722;23.268;2023-08-07T00:10:05;94380.00;;;17.24;84.12
42247;BME280;27913;42.722;23.268;2023-08-07T00:12:30;94430.78;;;17.45;84.23
42247;BME280;27913;42.722;23.268;2023-08-07T00:14:56;94457.13;;;17.30;85.49
42247;BME280;27913;42.722;23.268;2023-08-07T00:17:21;94314.63;;;16.32;85.95
42247;BME280;27913;42.722;23.268;2023-08-07T00:19:47;94495.78;;;17.37;86.42
42247;BME280;27913;42.722;23.268;2023-08-07T00:22:12;94366.53;;;16.28;88.00
42247;BME280;27913;42.722;23.268;2023-08-07T00:24:38;94380.38;;;16.30;86.84
42247;BME280;27913;42.722;23.268;2023-08-07T00:27:03;94392.03;;;16.29;88.90
42247;BME280;27913;42.722;23.268;2023-08-07T00:29:29;94419.69;;;16.33;89.60
42247;BME280;27913;42.722;23.268;2023-08-07T00:31:54;94310.66;;;15.59;90.25
42247;BME280;27913;42.722;23.268;2023-08-07T00:34:19;94331.47;;;15.67;90.41
42247;BME280;27913;42.722;23.268;2023-08-07T00:36:45;94437.53;;;16.38;90.06
42247;BME280;27913;42.722;23.268;2023-08-07T00:39:10;94352.66;;;15.79;89.57
42247;BME280;27913;42.722;23.268;2023-08-07T00:41:36;94436.75;;;16.37;89.75
42247;BME280;27913;42.722;23.268;2023-08-07T00:44:01;94381.84;;;16.09;89.89
42247;BME280;27913;42.722;23.268;2023-08-07T00:46:28;94361.44;;;15.97;89.05
42247;BME280;27913;42.722;23.268;2023-08-07T00:48:54;94363.34;;;15.85;89.65
42247;BME280;27913;42.722;23.268;2023-08-07T00:51:20;94312.34;;;15.24;90.81
42247;BME280;27913;42.722;23.268;2023-08-07T00:53:48;94498.22;;;16.34;91.25
42247;BME280;27913;42.722;23.268;2023-08-07T00:56:13;94509.31;;;16.31;92.36
42247;BME280;27913;42.722;23.268;2023-08-07T00:58:39;94499.97;;;16.40;92.47
42247;BME280;27913;42.722;23.268;2023-08-07T01:01:05;94384.47;;;15.67;91.81
42247;BME280;27913;42.722;23.268;2023-08-07T01:03:31;94520.28;;;16.64;91.22
42247;BME280;27913;42.722;23.268;2023-08-07T01:05:57;94520.41;;;16.69;90.95
42247;BME280;27913;42.722;23.268;2023-08-07T01:08:24;94526.59;;;16.75;90.31
42247;BME280;27913;42.722;23.268;2023-08-07T01:16:20;94527.50;;;16.81;89.72
42247;BME280;27913;42.722;23.268;2023-08-07T01:18:47;94518.06;;;16.73;89.67
42247;BME280;27913;42.722;23.268;2023-08-07T01:21:17;94532.91;;;16.86;89.56
42247;BME280;27913;42.722;23.268;2023-08-07T01:23:47;94535.31;;;16.87;89.17
42247;BME280;27913;42.722;23.268;2023-08-07T01:26:14;94528.41;;;16.86;88.35
42247;BME280;27913;42.722;23.268;2023-08-07T01:28:46;94489.72;;;16.61;88.07
42247;BME280;27913;42.722;23.268;2023-08-07T01:31:15;94535.41;;;16.93;87.98
42247;BME280;27913;42.722;23.268;2023-08-07T01:33:56;94528.81;;;16.95;87.42
42247;BME280;27913;42.722;23.268;2023-08-07T01:36:25;94536.41;;;17.03;87.03
42247;BME280;27913;42.722;23.268;2023-08-07T01:38:52;94463.19;;;16.61;86.79
42247;BME280;27913;42.722;23.268;2023-08-07T01:41:19;94533.63;;;17.10;86.63
42247;BME280;27913;42.722;23.268;2023-08-07T01:43:45;94534.44;;;17.11;86.24
42247;BME280;27913;42.722;23.268;2023-08-07T01:46:11;94421.91;;;16.24;86.37
42247;BME280;27913;42.722;23.268;2023-08-07T01:48:36;94412.97;;;16.13;86.70
42247;BME280;27913;42.722;23.268;2023-08-07T01:51:02;94454.03;;;16.40;86.74
42247;BME280;27913;42.722;23.268;2023-08-07T01:53:28;94407.31;;;16.10;86.81
42247;BME280;27913;42.722;23.268;2023-08-07T01:55:53;94540.16;;;16.90;87.04
42247;BME280;27913;42.722;23.268;2023-08-07T01:58:19;94527.50;;;16.81;87.15
42247;BME280;27913;42.722;23.268;2023-08-07T02:00:44;94532.38;;;16.72;87.79
42247;BME280;27913;42.722;23.268;2023-08-07T02:03:09;94455.84;;;16.22;88.02
42247;BME280;27913;42.722;23.268;2023-08-07T02:05:35;94525.59;;;16.64;88.59
42247;BME280;27913;42.722;23.268;2023-08-07T02:08:01;94509.63;;;16.47;89.07
42247;BME280;27913;42.722;23.268;2023-08-07T02:10:26;94535.56;;;16.57;89.23
42247;BME280;27913;42.722;23.268;2023-08-07T02:12:53;94540.06;;;16.56;89.30
42247;BME280;27913;42.722;23.268;2023-08-07T02:15:18;94538.22;;;16.57;89.19
42247;BME280;27913;42.722;23.268;2023-08-07T02:17:44;94524.41;;;16.42;89.40
42247;BME280;27913;42.722;23.268;2023-08-07T02:20:10;94534.91;;;16.49;89.24
42247;BME280;27913;42.722;23.268;2023-08-07T02:22:36;94515.34;;;16.26;89.83
42247;BME280;27913;42.722;23.268;2023-08-07T02:25:01;94409.16;;;15.56;89.96
42247;BME280;27913;42.722;23.268;2023-08-07T02:27:27;94568.56;;;16.49;90.32
42247;BME280;27913;42.722;23.268;2023-08-07T02:29:52;94563.03;;;16.50;90.33
42247;BME280;27913;42.722;23.268;2023-08-07T02:32:19;94477.91;;;15.99;90.00
42247;BME280;27913;42.722;23.268;2023-08-07T02:34:45;94541.75;;;16.33;90.24
42247;BME280;27913;42.722;23.268;2023-08-07T02:37:10;94547.63;;;16.35;90.73
42247;BME280;27913;42.722;23.268;2023-08-07T02:39:36;94566.06;;;16.42;91.10
42247;BME280;27913;42.722;23.268;2023-08-07T02:42:02;94561.81;;;16.41;91.42
42247;BME280;27913;42.722;23.268;2023-08-07T02:44:28;94521.47;;;16.15;91.11
42247;BME280;27913;42.722;23.268;2023-08-07T02:46:53;94521.47;;;16.15;90.90
42247;BME280;27913;42.722;23.268;2023-08-07T02:49:19;94565.25;;;16.41;91.08
42247;BME280;27913;42.722;23.268;2023-08-07T02:51:44;94527.81;;;16.14;91.16
42247;BME280;27913;42.722;23.268;2023-08-07T02:54:10;94571.25;;;16.37;91.43
42247;BME280;27913;42.722;23.268;2023-08-07T02:56:36;94494.50;;;15.94;91.60
42247;BME280;27913;42.722;23.268;2023-08-07T02:59:02;94528.53;;;16.09;91.28
42247;BME280;27913;42.722;23.268;2023-08-07T03:01:28;94564.66;;;16.39;91.14
42247;BME280;27913;42.722;23.268;2023-08-07T03:03:53;94535.91;;;16.07;90.91
42247;BME280;27913;42.722;23.268;2023-08-07T03:06:19;94530.59;;;16.07;90.84
42247;BME280;27913;42.722;23.268;2023-08-07T03:08:44;94579.31;;;16.42;90.75
42247;BME280;27913;42.722;23.268;2023-08-07T03:11:10;94540.84;;;16.15;90.16
42247;BME280;27913;42.722;23.268;2023-08-07T03:13:35;94586.00;;;16.45;89.97
42247;BME280;27913;42.722;23.268;2023-08-07T03:16:02;94551.56;;;16.21;89.71
42247;BME280;27913;42.722;23.268;2023-08-07T03:18:29;94509.63;;;15.93;89.12
42247;BME280;27913;42.722;23.268;2023-08-07T03:20:58;94518.72;;;15.98;88.92
42247;BME280;27913;42.722;23.268;2023-08-07T03:23:25;94590.41;;;16.39;88.79
42247;BME280;27913;42.722;23.268;2023-08-07T03:25:51;94591.78;;;16.41;88.44
42247;BME280;27913;42.722;23.268;2023-08-07T03:28:26;94553.19;;;16.10;88.37
42247;BME280;27913;42.722;23.268;2023-08-07T03:30:52;94493.84;;;15.75;88.34
42247;BME280;27913;42.722;23.268;2023-08-07T03:33:17;94598.72;;;16.42;88.20
42247;BME280;27913;42.722;23.268;2023-08-07T03:35:43;94542.00;;;15.96;88.31
42247;BME280;27913;42.722;23.268;2023-08-07T03:38:08;94540.38;;;15.94;88.04
42247;BME280;27913;42.722;23.268;2023-08-07T03:40:34;94616.38;;;16.37;88.18
42247;BME280;27913;42.722;23.268;2023-08-07T03:42:59;94424.97;;;15.15;88.11
42247;BME280;27913;42.722;23.268;2023-08-07T03:45:25;94620.16;;;16.53;87.56
42247;BME280;27913;42.722;23.268;2023-08-07T03:47:50;94481.16;;;15.65;86.69
42247;BME280;27913;42.722;23.268;2023-08-07T03:50:16;94558.72;;;16.20;86.81
42247;BME280;27913;42.722;23.268;2023-08-07T03:52:41;94630.59;;;16.72;85.98
42247;BME280;27913;42.722;23.268;2023-08-07T03:55:07;94634.19;;;16.77;85.54
42247;BME280;27913;42.722;23.268;2023-08-07T03:57:32;94632.94;;;16.68;85.65
42247;BME280;27913;42.722;23.268;2023-08-07T03:59:58;94567.59;;;16.14;86.58
42247;BME280;27913;42.722;23.268;2023-08-07T04:02:23;94636.75;;;16.60;86.29
42247;BME280;27913;42.722;23.268;2023-08-07T04:04:49;94570.72;;;16.23;86.58
42247;BME280;27913;42.722;23.268;2023-08-07T04:07:14;94606.44;;;16.44;86.16
42247;BME280;27913;42.722;23.268;2023-08-07T04:09:40;94633.97;;;16.67;86.00
42247;BME280;27913;42.722;23.268;2023-08-07T04:12:05;94465.84;;;15.67;85.54
42247;BME280;27913;42.722;23.268;2023-08-07T04:14:31;94649.25;;;16.89;85.32
42247;BME280;27913;42.722;23.268;2023-08-07T04:16:56;94650.59;;;17.03;84.56
42247;BME280;27913;42.722;23.268;2023-08-07T04:19:22;94582.38;;;16.63;83.83
42247;BME280;27913;42.722;23.268;2023-08-07T04:21:47;94651.41;;;17.16;83.47
42247;BME280;27913;42.722;23.268;2023-08-07T04:39:41;94544.19;;;15.63;88.47
42247;BME280;27913;42.722;23.268;2023-08-07T04:42:06;94673.34;;;16.58;87.44
42247;BME280;27913;42.722;23.268;2023-08-07T04:44:32;94589.66;;;16.14;86.26
42247;BME280;27913;42.722;23.268;2023-08-07T04:46:57;94625.81;;;16.45;86.24
42247;BME280;27913;42.722;23.268;2023-08-07T04:49:23;94662.69;;;16.82;85.75
42247;BME280;27913;42.722;23.268;2023-08-07T04:51:48;94669.94;;;16.87;85.65
42247;BME280;27913;42.722;23.268;2023-08-07T04:54:14;94527.63;;;16.03;85.17
42247;BME280;27913;42.722;23.268;2023-08-07T04:56:39;94515.25;;;15.85;84.90
42247;BME280;27913;42.722;23.268;2023-08-07T04:59:05;94589.72;;;16.32;85.30
42247;BME280;27913;42.722;23.268;2023-08-07T05:01:32;94457.78;;;15.38;85.50
42247;BME280;27913;42.722;23.268;2023-08-07T05:03:57;94668.00;;;16.70;86.08
42247;BME280;27913;42.722;23.268;2023-08-07T05:06:24;94659.00;;;16.71;86.10
42247;BME280;27913;42.722;23.268;2023-08-07T05:08:49;94656.94;;;16.61;86.21
42247;BME280;27913;42.722;23.268;2023-08-07T05:11:15;94588.69;;;16.33;86.73
42247;BME280;27913;42.722;23.268;2023-08-07T05:13:40;94658.53;;;16.86;85.28
42247;BME280;27913;42.722;23.268;2023-08-07T05:16:06;94609.84;;;16.69;85.42
42247;BME280;27913;42.722;23.268;2023-08-07T05:18:31;94650.50;;;16.98;84.93
42247;BME280;27913;42.722;23.268;2023-08-07T05:20:57;94649.50;;;16.87;85.00
42247;BME280;27913;42.722;23.268;2023-08-07T05:23:22;94658.38;;;16.93;85.24
42247;BME280;27913;42.722;23.268;2023-08-07T05:25:48;94650.41;;;16.93;85.22
42247;BME280;27913;42.722;23.268;2023-08-07T05:28:13;94629.56;;;16.73;85.43
42247;BME280;27913;42.722;23.268;2023-08-07T05:30:39;94615.84;;;16.64;85.19
42247;BME280;27913;42.722;23.268;2023-08-07T05:33:04;94652.97;;;16.88;85.40
42247;BME280;27913;42.722;23.268;2023-08-07T05:35:30;94610.47;;;16.47;85.27
42247;BME280;27913;42.722;23.268;2023-08-07T05:37:56;94654.41;;;16.66;85.67
42247;BME280;27913;42.722;23.268;2023-08-07T05:40:21;94671.22;;;16.84;85.74
42247;BME280;27913;42.722;23.268;2023-08-07T05:42:46;94547.44;;;16.13;85.06
42247;BME280;27913;42.722;23.268;2023-08-07T05:45:12;94667.59;;;16.90;85.73
42247;BME280;27913;42.722;23.268;2023-08-07T05:47:37;94667.38;;;17.04;84.80
42247;BME280;27913;42.722;23.268;2023-08-07T05:50:03;94671.84;;;17.16;82.62
42247;BME280;27913;42.722;23.268;2023-08-07T05:52:29;94628.94;;;16.95;82.40
42247;BME280;27913;42.722;23.268;2023-08-07T05:54:54;94633.19;;;16.96;82.87
42247;BME280;27913;42.722;23.268;2023-08-07T05:57:20;94645.75;;;17.12;81.37
42247;BME280;27913;42.722;23.268;2023-08-07T05:59:45;94667.78;;;17.25;80.40
42247;BME280;27913;42.722;23.268;2023-08-07T06:02:11;94622.81;;;16.94;81.04
42247;BME280;27913;42.722;23.268;2023-08-07T06:04:37;94665.81;;;17.20;81.57
42247;BME280;27913;42.722;23.268;2023-08-07T06:07:03;94666.72;;;17.26;81.62
42247;BME280;27913;42.722;23.268;2023-08-07T06:09:29;94621.19;;;16.93;80.97
42247;BME280;27913;42.722;23.268;2023-08-07T06:11:54;94610.47;;;16.88;81.15
42247;BME280;27913;42.722;23.268;2023-08-07T06:14:20;94556.91;;;16.62;81.44
42247;BME280;27913;42.722;23.268;2023-08-07T06:16:45;94606.19;;;16.99;81.59
42247;BME280;27913;42.722;23.268;2023-08-07T06:19:11;94644.63;;;17.37;80.77
42247;BME280;27913;42.722;23.268;2023-08-07T06:21:36;94603.09;;;17.19;80.74
42247;BME280;27913;42.722;23.268;2023-08-07T06:24:02;94576.56;;;17.07;78.00
42247;BME280;27913;42.722;23.268;2023-08-07T06:26:28;94594.72;;;17.27;78.61
42247;BME280;27913;42.722;23.268;2023-08-07T06:28:54;94572.91;;;17.25;79.15
42247;BME280;27913;42.722;23.268;2023-08-07T06:31:19;94567.31;;;17.39;78.13
42247;BME280;27913;42.722;23.268;2023-08-07T06:33:45;94603.06;;;17.48;77.60
42247;BME280;27913;42.722;23.268;2023-08-07T06:36:10;94591.41;;;17.49;77.50
42247;BME280;27913;42.722;23.268;2023-08-07T06:38:36;94642.81;;;17.90;76.89
42247;BME280;27913;42.722;23.268;2023-08-07T06:41:02;94529.91;;;17.11;75.15
42247;BME280;27913;42.722;23.268;2023-08-07T06:43:27;94583.91;;;17.46;76.34
42247;BME280;27913;42.722;23.268;2023-08-07T06:45:54;94589.75;;;17.48;74.73
42247;BME280;27913;42.722;23.268;2023-08-07T06:48:20;94582.94;;;17.53;72.28
42247;BME280;27913;42.722;23.268;2023-08-07T06:50:49;94558.09;;;17.30;71.32
42247;BME280;27913;42.722;23.268;2023-08-07T06:53:15;94618.63;;;17.74;70.00
42247;BME280;27913;42.722;23.268;2023-08-07T06:55:41;94656.09;;;18.07;70.94
42247;BME280;27913;42.722;23.268;2023-08-07T06:58:07;94616.13;;;17.84;70.33
42247;BME280;27913;42.722;23.268;2023-08-07T07:00:33;94537.66;;;17.30;69.34
42247;BME280;27913;42.722;23.268;2023-08-07T07:03:00;94526.53;;;17.33;69.15
42247;BME280;27913;42.722;23.268;2023-08-07T07:05:26;94586.31;;;17.82;69.55
42247;BME280;27913;42.722;23.268;2023-08-07T07:07:52;94661.34;;;18.36;67.20
42247;BME280;27913;42.722;23.268;2023-08-07T07:10:18;94663.50;;;18.39;69.50
42247;BME280;27913;42.722;23.268;2023-08-07T07:12:43;94605.88;;;17.93;66.82
42247;BME280;27913;42.722;23.268;2023-08-07T07:15:09;94595.09;;;17.83;68.55
42247;BME280;27913;42.722;23.268;2023-08-07T07:17:35;94586.31;;;17.82;67.26
42247;BME280;27913;42.722;23.268;2023-08-07T07:20:00;94578.16;;;17.89;67.11
42247;BME280;27913;42.722;23.268;2023-08-07T07:22:26;94577.38;;;17.89;67.63
42247;BME280;27913;42.722;23.268;2023-08-07T07:24:51;94653.00;;;18.50;68.05
42247;BME280;27913;42.722;23.268;2023-08-07T07:27:17;94647.31;;;18.63;68.06
42247;BME280;27913;42.722;23.268;2023-08-07T07:29:42;94585.50;;;18.39;67.79
42247;BME280;27913;42.722;23.268;2023-08-07T07:32:08;94598.88;;;18.44;65.09
42247;BME280;27913;42.722;23.268;2023-08-07T07:34:33;94600.78;;;18.49;65.57
42247;BME280;27913;42.722;23.268;2023-08-07T07:36:59;94565.16;;;18.27;66.11
42247;BME280;27913;42.722;23.268;2023-08-07T07:39:24;94599.00;;;18.54;64.74
42247;BME280;27913;42.722;23.268;2023-08-07T07:41:50;94582.53;;;18.35;65.61
42247;BME280;27913;42.722;23.268;2023-08-07T07:44:15;94545.47;;;18.11;62.68
42247;BME280;27913;42.722;23.268;2023-08-07T07:46:41;94594.81;;;18.58;61.19
42247;BME280;27913;42.722;23.268;2023-08-07T07:49:06;94580.13;;;18.56;59.13
42247;BME280;27913;42.722;23.268;2023-08-07T07:51:32;94630.59;;;18.90;58.98
42247;BME280;27913;42.722;23.268;2023-08-07T07:53:58;94652.78;;;19.18;59.65
42247;BME280;27913;42.722;23.268;2023-08-07T07:56:24;94576.59;;;18.73;58.31
42247;BME280;27913;42.722;23.268;2023-08-07T07:58:49;94586.06;;;18.86;59.49
42247;BME280;27913;42.722;23.268;2023-08-07T08:01:15;94582.03;;;18.83;61.19
42247;BME280;27913;42.722;23.268;2023-08-07T08:03:40;94568.53;;;18.90;60.41
42247;BME280;27913;42.722;23.268;2023-08-07T08:06:06;94594.50;;;19.05;60.82
42247;BME280;27913;42.722;23.268;2023-08-07T08:08:31;94620.50;;;19.15;60.21
42247;BME280;27913;42.722;23.268;2023-08-07T08:10:57;94590.81;;;19.06;61.26
42247;BME280;27913;42.722;23.268;2023-08-07T08:13:22;94602.72;;;19.26;59.30
42247;BME280;27913;42.722;23.268;2023-08-07T08:15:49;94577.22;;;19.07;58.94
42247;BME280;27913;42.722;23.268;2023-08-07T08:18:14;94590.78;;;19.28;58.41
42247;BME280;27913;42.722;23.268;2023-08-07T08:20:40;94581.31;;;19.15;57.77
42247;BME280;27913;42.722;23.268;2023-08-07T08:23:05;94587.09;;;19.35;57.64
42247;BME280;27913;42.722;23.268;2023-08-07T08:25:31;94548.03;;;19.18;56.83
42247;BME280;27913;42.722;23.268;2023-08-07T08:27:58;94553.22;;;19.30;57.44
42247;BME280;27913;42.722;23.268;2023-08-07T08:30:23;94576.44;;;19.67;58.32
42247;BME280;27913;42.722;23.268;2023-08-07T08:32:49;94561.00;;;19.70;55.77
42247;BME280;27913;42.722;23.268;2023-08-07T08:35:14;94578.44;;;19.88;56.54
42247;BME280;27913;42.722;23.268;2023-08-07T08:37:40;94599.34;;;20.01;54.03
42247;BME280;27913;42.722;23.268;2023-08-07T08:40:07;94547.66;;;19.70;54.38
42247;BME280;27913;42.722;23.268;2023-08-07T08:42:34;94613.63;;;20.18;55.71
42247;BME280;27913;42.722;23.268;2023-08-07T08:45:00;94539.19;;;19.78;55.76
42247;BME280;27913;42.722;23.268;2023-08-07T08:47:26;94560.66;;;19.99;56.32
42247;BME280;27913;42.722;23.268;2023-08-07T08:50:02;94537.63;;;19.87;56.63
42247;BME280;27913;42.722;23.268;2023-08-07T08:52:28;94493.03;;;19.77;55.67
42247;BME280;27913;42.722;23.268;2023-08-07T08:54:57;94562.44;;;20.31;55.18
42247;BME280;27913;42.722;23.268;2023-08-07T08:57:24;94483.44;;;19.82;55.67
42247;BME280;27913;42.722;23.268;2023-08-07T08:59:50;94496.34;;;20.00;55.29
42247;BME280;27913;42.722;23.268;2023-08-07T09:02:16;94564.16;;;20.58;55.81
42247;BME280;27913;42.722;23.268;2023-08-07T09:04:42;94584.78;;;20.79;54.48
42247;BME280;27913;42.722;23.268;2023-08-07T09:07:09;94577.81;;;20.67;55.50
42247;BME280;27913;42.722;23.268;2023-08-07T09:09:35;94572.72;;;20.60;54.26
42247;BME280;27913;42.722;23.268;2023-08-07T09:12:01;94451.75;;;19.90;54.99
42247;BME280;27913;42.722;23.268;2023-08-07T09:14:30;94563.94;;;20.70;54.25
42247;BME280;27913;42.722;23.268;2023-08-07T09:17:00;94539.03;;;20.54;53.55
42247;BME280;27913;42.722;23.268;2023-08-07T09:19:27;94503.59;;;20.05;54.70
42247;BME280;27913;42.722;23.268;2023-08-07T09:21:52;94590.69;;;20.81;54.53
42247;BME280;27913;42.722;23.268;2023-08-07T09:24:18;94543.88;;;20.57;54.97
42247;BME280;27913;42.722;23.268;2023-08-07T09:26:46;94543.38;;;20.66;53.65
42247;BME280;27913;42.722;23.268;2023-08-07T09:29:12;94592.13;;;20.99;53.17
42247;BME280;27913;42.722;23.268;2023-08-07T09:31:43;94583.03;;;21.00;53.23
42247;BME280;27913;42.722;23.268;2023-08-07T09:34:10;94591.91;;;21.21;52.63
42247;BME280;27913;42.722;23.268;2023-08-07T09:36:39;94450.09;;;20.38;50.44
42247;BME280;27913;42.722;23.268;2023-08-07T09:39:04;94598.06;;;21.27;49.14
42247;BME280;27913;42.722;23.268;2023-08-07T09:41:30;94543.50;;;21.18;49.48
42247;BME280;27913;42.722;23.268;2023-08-07T09:43:56;94460.31;;;20.78;48.50
42247;BME280;27913;42.722;23.268;2023-08-07T09:46:22;94534.44;;;21.24;50.09
42247;BME280;27913;42.722;23.268;2023-08-07T09:48:48;94576.97;;;21.57;50.42
42247;BME280;27913;42.722;23.268;2023-08-07T09:51:13;94527.75;;;21.47;51.40
42247;BME280;27913;42.722;23.268;2023-08-07T09:53:39;94422.63;;;20.69;50.02
42247;BME280;27913;42.722;23.268;2023-08-07T09:56:06;94511.16;;;21.24;50.95
42247;BME280;27913;42.722;23.268;2023-08-07T09:58:32;94575.88;;;21.79;50.40
42247;BME280;27913;42.722;23.268;2023-08-07T10:00:59;94472.94;;;21.14;49.42
42247;BME280;27913;42.722;23.268;2023-08-07T10:03:26;94538.16;;;21.65;49.52
42247;BME280;27913;42.722;23.268;2023-08-07T10:05:51;94405.28;;;20.66;49.10
42247;BME280;27913;42.722;23.268;2023-08-07T10:08:18;94380.69;;;20.64;49.84
42247;BME280;27913;42.722;23.268;2023-08-07T10:10:44;94532.28;;;21.78;48.41
42247;BME280;27913;42.722;23.268;2023-08-07T10:13:13;94429.63;;;21.22;48.78
42247;BME280;27913;42.722;23.268;2023-08-07T10:15:39;94398.34;;;21.17;48.69
42247;BME280;27913;42.722;23.268;2023-08-07T10:18:06;94536.50;;;22.16;48.39
42247;BME280;27913;42.722;23.268;2023-08-07T10:20:32;94533.78;;;22.26;48.31
42247;BME280;27913;42.722;23.268;2023-08-07T10:23:04;94415.63;;;21.67;48.15
42247;BME280;27913;42.722;23.268;2023-08-07T10:25:31;94499.22;;;22.30;48.47
42247;BME280;27913;42.722;23.268;2023-08-07T10:27:57;94572.13;;;22.88;47.37
42247;BME280;27913;42.722;23.268;2023-08-07T10:30:26;94582.22;;;22.40;48.16
42247;BME280;27913;42.722;23.268;2023-08-07T10:32:52;94533.81;;;22.16;48.58
42247;BME280;27913;42.722;23.268;2023-08-07T10:35:32;94570.94;;;22.54;47.02
42247;BME280;27913;42.722;23.268;2023-08-07T10:38:09;94455.47;;;21.94;47.52
42247;BME280;27913;42.722;23.268;2023-08-07T10:40:57;94451.91;;;22.15;47.14
42247;BME280;27913;42.722;23.268;2023-08-07T10:43:24;94547.53;;;22.80;46.63
42247;BME280;27913;42.722;23.268;2023-08-07T10:45:50;94579.66;;;22.91;46.32
42247;BME280;27913;42.722;23.268;2023-08-07T10:48:18;94559.56;;;22.83;47.27
42247;BME280;27913;42.722;23.268;2023-08-07T10:53:40;94518.13;;;22.65;46.36
42247;BME280;27913;42.722;23.268;2023-08-07T10:56:31;94544.81;;;22.91;46.88
42247;BME280;27913;42.722;23.268;2023-08-07T10:58:55;94527.44;;;22.78;47.08
42247;BME280;27913;42.722;23.268;2023-08-07T11:03:54;94510.94;;;23.00;46.29
42247;BME280;27913;42.722;23.268;2023-08-07T11:06:29;94558.88;;;23.12;46.49
42247;BME280;27913;42.722;23.268;2023-08-07T11:08:57;94415.75;;;22.23;46.45
42247;BME280;27913;42.722;23.268;2023-08-07T11:11:22;94429.75;;;22.49;46.30
42247;BME280;27913;42.722;23.268;2023-08-07T11:13:48;94456.66;;;22.79;46.20
42247;BME280;27913;42.722;23.268;2023-08-07T11:16:14;94483.03;;;23.07;46.20
42247;BME280;27913;42.722;23.268;2023-08-07T11:18:40;94482.06;;;23.27;46.20
42247;BME280;27913;42.722;23.268;2023-08-07T11:21:09;94416.09;;;22.96;45.48
42247;BME280;27913;42.722;23.268;2023-08-07T11:23:39;94516.22;;;23.56;45.64
42247;BME280;27913;42.722;23.268;2023-08-07T11:26:05;94450.75;;;23.22;45.44
42247;BME280;27913;42.722;23.268;2023-08-07T11:28:31;94485.03;;;23.60;44.90
42247;BME280;27913;42.722;23.268;2023-08-07T11:30:57;94505.19;;;23.87;44.46
42247;BME280;27913;42.722;23.268;2023-08-07T11:33:23;94523.94;;;23.63;44.42
42247;BME280;27913;42.722;23.268;2023-08-07T11:35:49;94511.53;;;23.67;45.50
42247;BME280;27913;42.722;23.268;2023-08-07T11:38:39;94426.75;;;23.36;45.07
42247;BME280;27913;42.722;23.268;2023-08-07T11:41:06;94507.00;;;24.22;43.71
42247;BME280;27913;42.722;23.268;2023-08-07T11:43:34;94493.75;;;24.50;43.39
42247;BME280;27913;42.722;23.268;2023-08-07T11:46:07;94332.50;;;23.48;43.03
42247;BME280;27913;42.722;23.268;2023-08-07T11:48:35;94509.44;;;24.43;42.73
42247;BME280;27913;42.722;23.268;2023-08-07T11:51:02;94376.84;;;23.65;42.97
42247;BME280;27913;42.722;23.268;2023-08-07T11:53:33;94431.13;;;24.30;42.79
42247;BME280;27913;42.722;23.268;2023-08-07T11:56:00;94351.66;;;24.29;41.19
42247;BME280;27913;42.722;23.268;2023-08-07T11:58:33;94470.31;;;25.14;41.10
42247;BME280;27913;42.722;23.268;2023-08-07T12:01:03;94483.63;;;25.05;42.26
42247;BME280;27913;42.722;23.268;2023-08-07T12:03:33;94299.03;;;24.28;41.91
42247;BME280;27913;42.722;23.268;2023-08-07T12:06:02;94361.91;;;24.80;41.43
42247;BME280;27913;42.722;23.268;2023-08-07T12:08:37;94499.63;;;25.82;41.66
42247;BME280;27913;42.722;23.268;2023-08-07T12:11:07;94407.31;;;25.01;41.87
42247;BME280;27913;42.722;23.268;2023-08-07T12:13:33;94491.03;;;25.66;41.88
42247;BME280;27913;42.722;23.268;2023-08-07T12:16:01;94349.91;;;24.58;42.27
42247;BME280;27913;42.722;23.268;2023-08-07T12:18:27;94425.38;;;25.00;42.68
42247;BME280;27913;42.722;23.268;2023-08-07T12:21:01;94355.06;;;24.54;42.32
42247;BME280;27913;42.722;23.268;2023-08-07T12:23:28;94466.38;;;25.25;42.63
42247;BME280;27913;42.722;23.268;2023-08-07T12:25:54;94488.72;;;25.06;43.46
42247;BME280;27913;42.722;23.268;2023-08-07T12:28:20;94427.97;;;24.47;43.64
42247;BME280;27913;42.722;23.268;2023-08-07T12:30:46;94474.09;;;24.93;43.57
42247;BME280;27913;42.722;23.268;2023-08-07T12:33:13;94387.53;;;24.19;44.83
42247;BME280;27913;42.722;23.268;2023-08-07T12:35:39;94451.22;;;24.57;44.98
42247;BME280;27913;42.722;23.268;2023-08-07T12:38:05;94358.28;;;24.12;44.37
42247;BME280;27913;42.722;23.268;2023-08-07T12:40:31;94427.47;;;24.84;44.46
42247;BME280;27913;42.722;23.268;2023-08-07T12:42:58;94401.03;;;24.72;44.61
42247;BME280;27913;42.722;23.268;2023-08-07T12:45:24;94482.09;;;25.51;43.76
42247;BME280;27913;42.722;23.268;2023-08-07T12:47:49;94500.53;;;25.77;43.25
42247;BME280;27913;42.722;23.268;2023-08-07T12:50:15;94480.28;;;25.47;43.51
42247;BME280;27913;42.722;23.268;2023-08-07T12:52:41;94512.41;;;25.24;44.63
42247;BME280;27913;42.722;23.268;2023-08-07T12:55:07;94508.44;;;25.02;45.14
42247;BME280;27913;42.722;23.268;2023-08-07T12:57:32;94456.88;;;24.75;45.64
42247;BME280;27913;42.722;23.268;2023-08-07T12:59:58;94464.94;;;24.75;45.52
42247;BME280;27913;42.722;23.268;2023-08-07T13:02:24;94444.75;;;24.78;45.88
42247;BME280;27913;42.722;23.268;2023-08-07T13:04:50;94466.97;;;24.45;46.04
42247;BME280;27913;42.722;23.268;2023-08-07T13:07:17;94508.75;;;24.56;46.93
42247;BME280;27913;42.722;23.268;2023-08-07T13:09:42;94412.69;;;23.99;47.25
42247;BME280;27913;42.722;23.268;2023-08-07T13:12:08;94340.00;;;22.92;47.84
42247;BME280;27913;42.722;23.268;2023-08-07T13:14:33;94438.72;;;23.49;49.08